Time;durP1;ratioP1;P1;durP2;ratioP2;P2;SDS_P1;SDS_P2;PMS_P1;PMS_P2;Temp;Humidity;BMP_temperature;BMP_pressure;BME280_temperature;BME280_humidity;BME280_pressure;Samples;Min_cycle;Max_cycle;Signal;HPM_P1;HPM_P2
2022/09/11 00:02:15;;;;;;;2.20;0.30;;;;;;;15.55;84.04;98629.31;5076930;28;20040;-58
2022/09/11 00:04:59;;;;;;;0.90;0.32;;;;;;;15.69;83.30;98631.53;5090924;28;20119;-59
2022/09/11 00:07:46;;;;;;;0.40;0.15;;;;;;;15.62;83.75;98618.06;5092377;28;20056;-58
2022/09/11 00:10:33;;;;;;;1.38;0.20;;;;;;;15.56;84.10;98628.34;5091891;28;20097;-62
2022/09/11 00:13:21;;;;;;;0.52;0.22;;;;;;;15.57;84.12;98617.63;5091674;28;20040;-58
2022/09/11 00:16:16;;;;;;;1.42;0.20;;;;;;;15.92;83.02;98622.44;5092126;28;20115;-58
2022/09/11 00:19:10;;;;;;;1.85;0.30;;;;;;;16.20;80.71;98622.50;5087620;28;20060;-58
2022/09/11 00:21:56;;;;;;;0.85;0.30;;;;;;;15.84;82.82;98618.72;5088768;28;20062;-58
2022/09/11 00:24:40;;;;;;;1.00;0.20;;;;;;;15.94;81.81;98621.31;5091754;28;20059;-58
2022/09/11 00:27:25;;;;;;;0.85;0.45;;;;;;;15.87;82.82;98618.44;5092094;28;20222;-58
2022/09/11 00:30:10;;;;;;;0.70;0.30;;;;;;;16.10;81.49;98609.34;5086928;28;20244;-58
2022/09/11 00:32:54;;;;;;;0.70;0.20;;;;;;;15.99;82.67;98605.06;5091271;28;20081;-58
2022/09/11 00:35:41;;;;;;;3.53;0.50;;;;;;;16.09;81.24;98600.56;5084779;28;20511;-58
2022/09/11 00:38:27;;;;;;;0.52;0.20;;;;;;;16.31;80.87;98609.13;5090853;28;20044;-58
2022/09/11 00:41:35;;;;;;;0.80;0.30;;;;;;;16.43;79.56;98606.28;5090067;28;20052;-58
2022/09/11 00:44:23;;;;;;;1.90;0.28;;;;;;;16.20;80.77;98602.22;5076282;28;20487;-57
2022/09/11 00:47:08;;;;;;;1.15;0.50;;;;;;;16.45;80.32;98612.25;5082619;28;20097;-57
2022/09/11 00:50:01;;;;;;;1.08;0.30;;;;;;;16.25;80.44;98609.72;5075938;28;20047;-58
2022/09/11 00:52:58;;;;;;;0.40;0.17;;;;;;;16.11;80.94;98606.56;5086733;28;20248;-58
2022/09/11 00:55:46;;;;;;;1.27;0.25;;;;;;;16.43;79.95;98601.00;5089098;28;20067;-58
2022/09/11 00:58:37;;;;;;;0.95;0.52;;;;;;;16.56;78.81;98611.22;5085461;28;20039;-57
2022/09/11 01:01:21;;;;;;;2.45;0.30;;;;;;;16.50;78.99;98605.53;5091379;28;20081;-58
2022/09/11 01:04:08;;;;;;;0.50;0.20;;;;;;;16.57;79.12;98604.94;5090940;28;20047;-59
2022/09/11 01:06:56;;;;;;;0.50;0.13;;;;;;;16.11;79.73;98606.56;5089019;28;20047;-58
2022/09/11 01:09:41;;;;;;;0.10;0.10;;;;;;;15.98;81.66;98606.03;5091505;28;20040;-58
2022/09/11 01:13:03;;;;;;;0.47;0.20;;;;;;;16.21;81.22;98600.38;5084493;28;20052;-58
2022/09/11 01:16:03;;;;;;;;;;;;;;;16.04;79.80;98597.56;5088161;28;20040;-59
2022/09/11 01:18:53;;;;;;;0.63;0.20;;;;;;;15.97;81.27;98613.13;5077232;28;19920;-58
2022/09/11 01:21:55;;;;;;;0.73;0.30;;;;;;;16.05;80.98;98609.78;5088247;28;20438;-58
2022/09/11 01:25:08;;;;;;;0.93;0.10;;;;;;;16.17;79.37;98601.66;5086573;28;20267;-58
2022/09/11 01:28:07;;;;;;;3.67;0.15;;;;;;;16.30;79.56;98607.47;5100824;28;20123;-58
2022/09/11 01:31:01;;;;;;;0.40;0.20;;;;;;;16.45;78.70;98612.25;5089121;28;20051;-58
2022/09/11 01:33:54;;;;;;;0.77;0.10;;;;;;;16.37;79.13;98613.81;5096719;28;20115;-59
2022/09/11 01:36:47;;;;;;;0.30;0.10;;;;;;;16.78;77.75;98611.81;5075023;28;20483;-58
2022/09/11 01:39:45;;;;;;;0.30;0.20;;;;;;;16.59;78.11;98609.13;5090408;28;20032;-58
2022/09/11 01:42:32;;;;;;;0.55;0.20;;;;;;;16.43;78.83;98603.63;5090543;28;20060;-59
2022/09/11 01:45:19;;;;;;;0.10;0.03;;;;;;;16.69;78.22;98601.13;5089465;28;20047;-58
2022/09/11 01:48:06;;;;;;;1.15;0.10;;;;;;;16.83;76.21;98597.13;5077056;28;20064;-57
2022/09/11 01:50:53;;;;;;;0.30;0.20;;;;;;;16.72;77.13;98602.63;5084658;28;20107;-58
2022/09/11 01:53:45;;;;;;;0.98;0.20;;;;;;;16.33;79.02;98611.63;5075409;28;20147;-57
2022/09/11 01:56:39;;;;;;;2.30;0.43;;;;;;;16.33;79.06;98601.88;5084938;28;20086;-59
2022/09/11 01:59:38;;;;;;;0.50;0.25;;;;;;;16.08;80.27;98603.34;5088407;28;20058;-58
2022/09/11 02:02:33;;;;;;;0.65;0.20;;;;;;;16.32;79.03;98596.75;5075388;28;20056;-58
2022/09/11 02:05:23;;;;;;;1.05;0.30;;;;;;;16.23;80.78;98601.09;5088559;28;20475;-58
2022/09/11 02:08:15;;;;;;;1.48;0.30;;;;;;;16.12;80.41;98589.72;5084271;28;20115;-58
2022/09/11 02:11:05;;;;;;;0.85;0.40;;;;;;;16.17;80.74;98591.94;5090210;28;20036;-58
2022/09/11 02:14:09;;;;;;;1.80;0.30;;;;;;;16.32;78.86;98591.47;5084879;28;20055;-58
2022/09/11 02:17:12;;;;;;;0.40;0.30;;;;;;;16.07;80.23;98593.78;5086102;28;20063;-58
2022/09/11 02:19:59;;;;;;;0.65;0.20;;;;;;;16.43;79.66;98585.13;5081293;28;20119;-58
2022/09/11 02:22:44;;;;;;;0.65;0.35;;;;;;;16.20;80.02;98586.38;5083671;28;20052;-57
2022/09/11 02:25:28;;;;;;;0.95;0.40;;;;;;;16.08;80.57;98579.59;5090418;28;20089;-58
2022/09/11 02:28:15;;;;;;;1.27;0.32;;;;;;;15.91;81.06;98582.00;5090705;28;20218;-58
2022/09/11 02:31:02;;;;;;;1.05;0.50;;;;;;;16.11;80.88;98581.94;5082792;28;20103;-58
2022/09/11 02:33:48;;;;;;;1.08;0.50;;;;;;;15.94;81.69;98578.22;5090789;28;20471;-58
2022/09/11 02:36:45;;;;;;;1.10;0.45;;;;;;;16.40;79.76;98577.50;5093957;28;20036;-57
2022/09/11 02:40:06;;;;;;;0.68;0.40;;;;;;;16.20;81.06;98577.59;5094112;28;20071;-59
2022/09/11 02:43:17;;;;;;;1.10;0.43;;;;;;;16.07;81.20;98583.22;5079804;28;20160;-58
2022/09/11 02:46:18;;;;;;;0.90;0.40;;;;;;;15.64;83.83;98568.59;5069765;28;20041;-58
2022/09/11 02:49:23;;;;;;;0.90;0.45;;;;;;;15.83;83.04;98580.06;5088600;28;20056;-58
2022/09/11 02:52:20;;;;;;;1.23;0.30;;;;;;;15.94;82.70;98568.50;5090184;28;20048;-58
2022/09/11 02:55:37;;;;;;;0.80;0.40;;;;;;;15.62;84.20;98569.69;5093291;28;20475;-58
2022/09/11 02:58:27;;;;;;;1.70;0.43;;;;;;;15.79;84.39;98575.22;5107077;28;20048;-58
2022/09/11 03:01:13;;;;;;;0.50;0.30;;;;;;;16.20;81.32;98574.94;5092607;28;20128;-58
2022/09/11 03:03:58;;;;;;;0.98;0.50;;;;;;;16.18;82.18;98574.25;5087284;28;20040;-59
2022/09/11 03:06:44;;;;;;;0.95;0.30;;;;;;;15.94;83.41;98571.13;5092372;28;20529;-58
2022/09/11 03:09:28;;;;;;;1.95;0.40;;;;;;;15.93;83.45;98573.94;5092519;28;20101;-58
2022/09/11 03:12:19;;;;;;;1.27;0.40;;;;;;;15.97;83.46;98586.69;5093504;28;20108;-58
2022/09/11 03:15:09;;;;;;;0.77;0.52;;;;;;;16.42;81.61;98584.28;5093459;28;20047;-58
2022/09/11 03:17:54;;;;;;;0.75;0.40;;;;;;;16.08;82.24;98579.59;5088827;28;20111;-58
2022/09/11 03:20:38;;;;;;;1.50;0.60;;;;;;;16.02;82.87;98581.00;5092510;28;20130;-58
2022/09/11 03:23:26;;;;;;;0.40;0.30;;;;;;;16.10;82.66;98581.13;5091478;28;20067;-58
2022/09/11 03:26:10;;;;;;;1.25;0.40;;;;;;;16.44;80.70;98578.84;5089754;28;20155;-58
2022/09/11 03:28:55;;;;;;;1.73;0.30;;;;;;;16.06;82.53;98573.63;5092016;28;20475;-58
2022/09/11 03:31:40;;;;;;;1.15;0.30;;;;;;;16.30;82.00;98577.53;5092350;28;20054;-58
2022/09/11 03:34:25;;;;;;;0.77;0.38;;;;;;;16.25;82.15;98576.16;5092034;28;20040;-59
2022/09/11 03:37:10;;;;;;;1.60;0.40;;;;;;;16.01;84.29;98577.53;5091037;28;20040;-58
2022/09/11 03:39:55;;;;;;;1.00;0.50;;;;;;;16.49;81.59;98577.44;5092334;28;20071;-59
2022/09/11 03:42:39;;;;;;;0.82;0.43;;;;;;;16.12;83.37;98578.31;5089491;28;20102;-58
2022/09/11 03:45:24;;;;;;;1.15;0.40;;;;;;;15.95;84.73;98578.06;5088679;28;20047;-59
2022/09/11 03:48:10;;;;;;;1.80;0.38;;;;;;;15.95;86.07;98579.88;5090875;28;20044;-58
2022/09/11 03:50:55;;;;;;;0.95;0.30;;;;;;;15.84;85.50;98580.91;5087731;28;20428;-58
2022/09/11 03:53:41;;;;;;;1.13;0.40;;;;;;;15.97;85.38;98577.94;5092786;28;20111;-58
2022/09/11 03:56:27;;;;;;;1.58;0.32;;;;;;;15.95;85.36;98580.72;5092470;28;20040;-58
2022/09/11 03:59:12;;;;;;;1.67;0.43;;;;;;;16.05;84.40;98582.53;5091425;28;20044;-58
2022/09/11 04:01:56;;;;;;;2.58;0.50;;;;;;;15.87;84.66;98581.44;5085733;28;20107;-58
2022/09/11 04:04:41;;;;;;;1.20;0.60;;;;;;;15.25;88.44;98577.41;5090995;28;20032;-58
2022/09/11 04:07:26;;;;;;;0.90;0.50;;;;;;;15.26;89.17;98584.34;5077681;28;20472;-58
2022/09/11 04:10:10;;;;;;;1.58;0.55;;;;;;;15.73;86.78;98580.06;5092704;28;20058;-58
2022/09/11 04:12:55;;;;;;;1.00;0.50;;;;;;;15.99;85.79;98586.59;5086583;28;20067;-58
2022/09/11 04:15:41;;;;;;;1.02;0.52;;;;;;;15.84;85.16;98583.53;5090725;28;20040;-58
2022/09/11 04:18:27;;;;;;;0.70;0.45;;;;;;;15.79;86.51;98583.13;5090233;28;20035;-59
2022/09/11 04:21:14;;;;;;;1.15;0.50;;;;;;;15.78;86.20;98577.03;5090526;28;20032;-57
2022/09/11 04:23:59;;;;;;;1.70;0.60;;;;;;;15.61;86.35;98578.59;5090787;28;20036;-59
2022/09/11 04:26:46;;;;;;;1.20;0.60;;;;;;;15.83;85.13;98576.59;5085887;28;20063;-58
2022/09/11 04:29:36;;;;;;;0.82;0.60;;;;;;;15.93;84.57;98579.22;5091183;28;20031;-58
2022/09/11 04:32:21;;;;;;;0.93;0.55;;;;;;;16.04;83.76;98580.88;5088959;28;20044;-58
2022/09/11 04:35:06;;;;;;;3.17;0.63;;;;;;;16.12;83.25;98575.69;5089269;28;20193;-59
2022/09/11 04:37:55;;;;;;;0.80;0.60;;;;;;;15.67;85.47;98569.28;5090412;28;20039;-58
2022/09/11 04:40:41;;;;;;;0.98;0.50;;;;;;;15.67;86.34;98580.66;5089706;28;20387;-58
2022/09/11 04:43:26;;;;;;;2.05;0.80;;;;;;;15.58;86.26;98570.97;5090826;28;20052;-58
2022/09/11 04:46:17;;;;;;;0.85;0.60;;;;;;;15.77;85.09;98572.72;5075223;28;20115;-63
2022/09/11 04:49:02;;;;;;;1.25;0.65;;;;;;;16.09;83.29;98568.88;5090930;28;20044;-58
2022/09/11 04:51:49;;;;;;;0.73;0.63;;;;;;;15.92;84.95;98565.16;5074877;28;20119;-58
2022/09/11 04:54:36;;;;;;;1.00;0.60;;;;;;;15.28;86.98;98568.38;5085728;28;20090;-58
2022/09/11 04:57:23;;;;;;;0.68;0.52;;;;;;;14.61;91.63;98569.00;5074010;28;20089;-58
2022/09/11 05:00:09;;;;;;;1.98;0.60;;;;;;;14.68;91.90;98574.56;5088870;28;20048;-58
2022/09/11 05:02:54;;;;;;;0.93;0.60;;;;;;;14.56;92.60;98577.31;5072495;28;20491;-58
2022/09/11 05:05:40;;;;;;;3.95;0.75;;;;;;;14.55;93.35;98575.66;5072705;28;20101;-58
2022/09/11 05:08:27;;;;;;;1.20;0.70;;;;;;;14.34;94.47;98571.31;5088966;28;20040;-58
2022/09/11 05:11:15;;;;;;;2.28;0.73;;;;;;;14.30;95.20;98569.91;5073599;28;20032;-58
2022/09/11 05:14:01;;;;;;;1.15;0.60;;;;;;;14.32;95.57;98580.31;5100646;28;20479;-57
2022/09/11 05:16:48;;;;;;;1.17;0.70;;;;;;;14.39;95.14;98578.81;5089362;28;20040;-58
2022/09/11 05:19:36;;;;;;;1.50;1.05;;;;;;;14.40;95.22;98577.84;5089027;28;20075;-57
2022/09/11 05:22:22;;;;;;;1.00;0.80;;;;;;;14.48;94.66;98578.00;5086970;28;20036;-58
2022/09/11 05:25:11;;;;;;;2.30;0.70;;;;;;;14.52;95.75;98579.41;5083033;28;20063;-58
2022/09/11 05:27:55;;;;;;;0.98;0.80;;;;;;;14.63;94.40;98580.25;5083530;28;20036;-57
2022/09/11 05:30:41;;;;;;;0.80;0.50;;;;;;;14.72;94.06;98583.88;5070491;28;20385;-57
2022/09/11 05:33:26;;;;;;;2.63;0.90;;;;;;;14.84;93.00;98584.59;5084247;28;20044;-58
2022/09/11 05:36:13;;;;;;;2.22;0.98;;;;;;;15.02;91.16;98584.75;5071432;28;20578;-59
2022/09/11 05:38:59;;;;;;;1.42;0.77;;;;;;;15.09;90.75;98579.75;5083441;28;20749;-58
2022/09/11 05:41:44;;;;;;;2.13;0.55;;;;;;;15.81;88.39;98584.66;5087350;28;20059;-59
2022/09/11 05:44:31;;;;;;;1.92;0.68;;;;;;;15.56;88.81;98583.47;5086000;28;20059;-59
2022/09/11 05:47:20;;;;;;;1.02;0.60;;;;;;;15.25;91.16;98589.75;5088084;28;20036;-59
2022/09/11 05:50:07;;;;;;;1.55;0.75;;;;;;;15.32;92.25;98595.31;5087783;28;20056;-58
2022/09/11 05:52:52;;;;;;;1.30;0.70;;;;;;;15.59;89.59;98593.72;5086593;28;20071;-58
2022/09/11 05:55:37;;;;;;;1.33;0.60;;;;;;;15.73;88.87;98597.75;5084661;28;20510;-58
2022/09/11 05:58:22;;;;;;;1.85;0.70;;;;;;;16.23;85.15;98598.44;5086313;28;20682;-58
2022/09/11 06:01:10;;;;;;;1.40;0.85;;;;;;;16.24;84.99;98594.81;5079423;28;20067;-58
2022/09/11 06:03:56;;;;;;;1.80;0.75;;;;;;;16.20;85.17;98590.81;5087314;28;20123;-57
2022/09/11 06:06:46;;;;;;;0.55;0.52;;;;;;;16.11;85.92;98597.78;5086039;28;20548;-59
2022/09/11 06:09:31;;;;;;;0.73;0.50;;;;;;;16.19;84.62;98587.31;5075752;28;20040;-57
2022/09/11 06:12:17;;;;;;;1.92;0.50;;;;;;;16.35;86.00;98591.16;5085997;28;20036;-60
2022/09/11 06:15:02;;;;;;;2.35;0.60;;;;;;;16.75;84.24;98591.75;5081550;28;20067;-60
2022/09/11 06:17:48;;;;;;;3.22;0.90;;;;;;;17.40;79.43;98589.06;5084062;28;20043;-58
2022/09/11 06:20:34;;;;;;;1.10;0.60;;;;;;;17.44;79.44;98585.09;5082311;28;20059;-59
2022/09/11 06:23:20;;;;;;;1.45;0.77;;;;;;;17.39;79.68;98582.09;5088992;28;20048;-58
2022/09/11 06:26:07;;;;;;;1.40;0.80;;;;;;;17.13;79.83;98593.47;5083610;28;20107;-58
2022/09/11 06:28:54;;;;;;;2.10;0.90;;;;;;;16.64;82.22;98600.75;5088278;28;20035;-56
2022/09/11 06:31:41;;;;;;;1.10;0.55;;;;;;;16.87;81.39;98595.84;5059842;28;20544;-59
2022/09/11 06:34:26;;;;;;;1.38;0.80;;;;;;;16.91;81.06;98591.09;5088415;28;20044;-58
2022/09/11 06:37:12;;;;;;;1.33;0.93;;;;;;;16.90;79.57;98591.22;5088735;28;20039;-58
2022/09/11 06:39:57;;;;;;;0.75;0.60;;;;;;;16.82;81.87;98600.75;5087836;28;20040;-57
2022/09/11 06:42:44;;;;;;;1.45;0.90;;;;;;;17.56;78.70;98597.09;5087570;28;20041;-58
2022/09/11 06:45:32;;;;;;;2.55;0.80;;;;;;;17.63;77.11;98601.81;5090164;28;20127;-56
2022/09/11 06:48:20;;;;;;;2.58;0.60;;;;;;;17.26;81.30;98593.06;5089874;28;20058;-56
2022/09/11 06:51:06;;;;;;;3.05;0.80;;;;;;;17.21;79.06;98601.47;5083287;28;20066;-60
2022/09/11 06:54:01;;;;;;;1.98;1.00;;;;;;;17.72;76.47;98601.69;5077912;28;20032;-59
2022/09/11 06:56:48;;;;;;;1.42;0.80;;;;;;;18.13;76.88;98605.59;5085202;28;20064;-58
2022/09/11 06:59:33;;;;;;;1.10;0.75;;;;;;;17.81;76.31;98605.22;5086665;28;20087;-59
2022/09/11 07:02:18;;;;;;;1.52;0.70;;;;;;;18.04;76.48;98610.00;5066301;28;20039;-58
2022/09/11 07:05:05;;;;;;;3.65;0.80;;;;;;;18.09;76.53;98615.66;5071678;28;20332;-58
2022/09/11 07:07:54;;;;;;;3.50;0.90;;;;;;;17.59;79.83;98610.03;5083977;28;20048;-48
2022/09/11 07:10:40;;;;;;;1.02;0.77;;;;;;;17.86;78.75;98604.75;5088098;28;20532;-50
2022/09/11 07:13:24;;;;;;;2.08;0.80;;;;;;;17.34;80.25;98617.81;5088640;28;20051;-58
2022/09/11 07:16:12;;;;;;;3.53;0.80;;;;;;;17.05;82.13;98621.50;5089085;28;20052;-57
2022/09/11 07:18:58;;;;;;;3.72;0.82;;;;;;;16.84;82.39;98614.66;5088251;28;20548;-59
2022/09/11 07:21:44;;;;;;;2.55;1.10;;;;;;;16.66;83.60;98627.03;5092506;28;20429;-60
2022/09/11 07:24:29;;;;;;;1.35;0.77;;;;;;;16.30;85.19;98625.97;5090750;28;20408;-60
2022/09/11 07:27:14;;;;;;;2.30;1.10;;;;;;;16.31;86.01;98627.63;5077185;28;20036;-63
2022/09/11 07:29:59;;;;;;;1.45;0.80;;;;;;;16.01;87.04;98627.72;5092456;28;20295;-60
2022/09/11 07:32:45;;;;;;;4.00;1.27;;;;;;;15.85;88.12;98630.09;5093769;28;20075;-60
2022/09/11 07:35:30;;;;;;;4.05;0.65;;;;;;;16.01;86.53;98621.63;5091620;28;20555;-59
2022/09/11 07:38:15;;;;;;;2.72;0.90;;;;;;;16.10;86.97;98619.91;5087472;28;20044;-60
2022/09/11 07:41:02;;;;;;;2.25;0.93;;;;;;;16.35;85.58;98623.69;5106828;28;20467;-60
2022/09/11 07:43:51;;;;;;;1.10;0.70;;;;;;;16.42;85.45;98628.41;5076404;28;20593;-60
2022/09/11 07:46:40;;;;;;;2.08;1.00;;;;;;;16.47;85.62;98634.06;5092450;28;20043;-60
2022/09/11 07:49:26;;;;;;;2.30;0.70;;;;;;;16.48;85.07;98627.81;5091409;28;20089;-61
2022/09/11 07:52:11;;;;;;;2.42;0.75;;;;;;;16.51;84.58;98630.19;5081615;28;20032;-61
2022/09/11 07:55:02;;;;;;;2.33;0.70;;;;;;;16.58;84.83;98627.78;5077496;28;20028;-60
2022/09/11 07:57:50;;;;;;;1.40;0.77;;;;;;;17.06;82.85;98630.25;5077538;28;20390;-60
2022/09/11 08:00:35;;;;;;;1.40;0.80;;;;;;;17.38;80.50;98623.63;5091848;28;20135;-61
2022/09/11 08:03:32;;;;;;;2.90;0.98;;;;;;;17.71;80.73;98623.03;5090306;28;20032;-61
2022/09/11 08:06:18;;;;;;;1.55;0.60;;;;;;;18.10;76.74;98621.75;5090585;28;20038;-61
2022/09/11 08:09:09;;;;;;;2.00;0.77;;;;;;;18.92;73.73;98622.25;5092180;28;20101;-61
2022/09/11 08:11:57;;;;;;;1.45;0.43;;;;;;;18.17;74.63;98614.03;5081478;28;20431;-60
2022/09/11 08:14:43;;;;;;;1.08;0.43;;;;;;;17.96;75.92;98621.38;5076942;28;20135;-62
2022/09/11 08:17:38;;;;;;;1.13;0.63;;;;;;;18.05;76.80;98621.44;5086916;28;20040;-62
2022/09/11 08:20:26;;;;;;;5.68;0.70;;;;;;;18.06;75.84;98629.22;5074061;28;20044;-61
2022/09/11 08:23:14;;;;;;;0.90;0.52;;;;;;;18.06;76.47;98631.03;5087271;28;20059;-61
2022/09/11 08:26:14;;;;;;;1.00;0.40;;;;;;;17.81;76.39;98626.41;5085324;28;20040;-61
2022/09/11 08:29:00;;;;;;;0.70;0.50;;;;;;;17.47;77.71;98617.41;5070337;28;20048;-60
2022/09/11 08:31:49;;;;;;;1.50;0.50;;;;;;;17.45;78.50;98621.19;5060893;28;20778;-61
2022/09/11 08:34:37;;;;;;;0.80;0.38;;;;;;;17.53;78.23;98605.34;5090380;28;20036;-60
2022/09/11 08:37:21;;;;;;;0.65;0.40;;;;;;;17.38;78.01;98613.03;5073260;28;20051;-60
2022/09/11 08:40:09;;;;;;;1.45;0.60;;;;;;;17.54;78.70;98600.91;5090334;28;20116;-60
2022/09/11 08:42:57;;;;;;;1.42;0.50;;;;;;;17.24;78.57;98599.34;5091074;28;20044;-61
2022/09/11 08:45:43;;;;;;;0.73;0.60;;;;;;;17.02;79.66;98590.03;5090275;28;20040;-61
2022/09/11 08:48:40;;;;;;;1.42;0.40;;;;;;;17.38;78.94;98597.16;5090789;28;20119;-60
2022/09/11 08:51:25;;;;;;;1.33;0.50;;;;;;;17.29;79.48;98596.25;5076441;28;20101;-60
2022/09/11 08:54:26;;;;;;;0.60;0.40;;;;;;;17.18;79.60;98604.44;5087152;28;20043;-63
2022/09/11 08:57:39;;;;;;;1.10;0.47;;;;;;;17.12;79.92;98616.44;5091199;28;20043;-60
2022/09/11 09:00:39;;;;;;;1.48;0.40;;;;;;;17.44;78.81;98615.06;5091747;28;20355;-64
2022/09/11 09:03:34;;;;;;;0.30;0.28;;;;;;;18.27;76.37;98614.78;5089696;28;20070;-64
2022/09/11 09:07:00;;;;;;;0.50;0.45;;;;;;;18.56;73.48;98610.06;5104032;28;20036;-65
2022/09/11 09:10:52;;;;;;;1.75;0.60;;;;;;;19.32;70.00;98617.19;5087438;28;20059;-63
2022/09/11 09:13:56;;;;;;;1.50;0.68;;;;;;;19.68;68.20;98614.16;4953827;28;20230;-66
2022/09/11 09:16:49;;;;;;;1.27;0.68;;;;;;;18.86;70.70;98609.63;4957060;28;20638;-68
2022/09/11 09:19:56;;;;;;;1.20;0.73;;;;;;;19.55;68.24;98608.56;4927394;28;20101;-68
2022/09/11 09:22:50;;;;;;;2.10;0.63;;;;;;;20.43;65.61;98613.19;4955157;28;20529;-66
2022/09/11 09:25:38;;;;;;;1.73;1.10;;;;;;;21.78;61.21;98607.59;4954817;28;20077;-67
2022/09/11 09:28:42;;;;;;;1.52;0.50;;;;;;;20.31;64.43;98597.59;4956235;28;20236;-70
2022/09/11 09:31:32;;;;;;;0.57;0.50;;;;;;;20.35;66.10;98615.88;4949046;28;20345;-67
2022/09/11 09:34:20;;;;;;;0.75;0.50;;;;;;;19.39;69.24;98601.44;4941961;28;20098;-61
2022/09/11 09:37:22;;;;;;;1.65;0.95;;;;;;;18.94;71.70;98610.50;4940667;28;20050;-64
2022/09/11 09:40:09;;;;;;;;;;;;;;;19.58;69.43;98611.69;4954508;28;20550;-56
2022/09/11 09:43:11;;;;;;;1.90;0.82;;;;;;;19.68;68.89;98614.16;4952329;28;19918;-59
2022/09/11 09:46:08;;;;;;;2.55;0.52;;;;;;;19.56;70.02;98615.53;4968350;28;20544;-59
2022/09/11 09:48:54;;;;;;;0.47;0.40;;;;;;;19.47;68.48;98616.53;5077165;28;20042;-61
2022/09/11 09:51:39;;;;;;;0.65;0.30;;;;;;;19.87;66.29;98619.28;5089306;28;20039;-62
2022/09/11 09:54:28;;;;;;;0.63;0.30;;;;;;;20.74;62.51;98619.50;5082851;28;20115;-71
2022/09/11 09:57:13;;;;;;;0.70;0.30;;;;;;;21.76;58.14;98616.75;5087326;28;20076;-70
2022/09/11 10:00:10;;;;;;;1.92;0.40;;;;;;;20.30;63.69;98621.72;5086643;28;20589;-69
2022/09/11 10:02:58;;;;;;;0.88;0.30;;;;;;;20.01;66.51;98625.75;5090916;28;20185;-65
2022/09/11 10:05:43;;;;;;;0.90;0.52;;;;;;;19.17;72.60;98633.78;5089394;28;20036;-64
2022/09/11 10:08:34;;;;;;;0.55;0.40;;;;;;;18.45;77.40;98633.25;5087779;28;20028;-57
2022/09/11 10:11:27;;;;;;;1.10;0.70;;;;;;;17.94;79.27;98628.66;5089524;28;20123;-56
2022/09/11 10:14:20;;;;;;;2.90;0.70;;;;;;;18.12;78.90;98633.06;5086257;28;20416;-55
2022/09/11 10:17:05;;;;;;;5.70;1.92;;;;;;;19.62;75.39;98630.78;5088175;28;20098;-56
2022/09/11 10:19:54;;;;;;;0.68;0.50;;;;;;;20.74;65.91;98622.16;5087870;28;20493;-62
2022/09/11 10:22:39;;;;;;;0.90;0.60;;;;;;;20.91;64.61;98618.41;5087497;28;20036;-65
2022/09/11 10:25:25;;;;;;;0.60;0.40;;;;;;;20.11;66.25;98621.09;5087333;28;20036;-63
2022/09/11 10:28:18;;;;;;;0.93;0.70;;;;;;;19.16;71.33;98629.44;5090202;28;20130;-56
2022/09/11 10:31:03;;;;;;;1.10;0.38;;;;;;;19.33;70.25;98630.31;5083901;28;20117;-65
2022/09/11 14:36:12;;;;;;;1.10;0.43;;;;;;;18.92;82.46;98598.38;5067949;27;20196;-56
2022/09/11 14:38:57;;;;;;;1.60;0.30;;;;;;;18.91;83.95;98607.34;5063083;28;20466;-56
2022/09/11 14:41:43;;;;;;;1.20;0.40;;;;;;;18.88;81.62;98610.31;5065652;28;20068;-54
2022/09/11 14:44:29;;;;;;;0.57;0.20;;;;;;;18.87;80.34;98600.72;5067448;28;20056;-56
2022/09/11 14:47:24;;;;;;;0.47;0.30;;;;;;;19.11;79.83;98604.41;5047264;28;20119;-54
2022/09/11 14:50:11;;;;;;;1.75;0.20;;;;;;;19.57;77.57;98598.56;5030763;28;20045;-55
2022/09/11 14:52:56;;;;;;;0.68;0.20;;;;;;;19.64;77.70;98593.41;5065150;28;20051;-53
2022/09/11 14:55:40;;;;;;;2.15;0.30;;;;;;;19.31;77.37;98589.81;5050722;28;20119;-57
2022/09/11 14:58:26;;;;;;;0.50;0.35;;;;;;;19.16;79.68;98588.81;5066650;28;20033;-61
2022/09/11 15:01:12;;;;;;;3.28;0.28;;;;;;;20.16;75.05;98586.84;5044109;28;20044;-50
2022/09/11 15:03:56;;;;;;;1.88;0.30;;;;;;;20.56;73.72;98597.47;5067358;28;20048;-58
2022/09/11 15:06:41;;;;;;;0.30;0.15;;;;;;;21.35;69.39;98592.13;5044240;28;20498;-58
2022/09/11 15:09:26;;;;;;;0.52;0.20;;;;;;;21.69;67.77;98589.19;5067531;28;20090;-61
2022/09/11 15:12:13;;;;;;;0.17;0.17;;;;;;;21.70;66.45;98585.50;5065884;28;20048;-59
2022/09/11 15:14:57;;;;;;;1.48;0.40;;;;;;;21.56;68.35;98576.47;5065041;28;20040;-61
2022/09/11 15:17:42;;;;;;;0.40;0.20;;;;;;;21.69;68.09;98567.84;5048976;28;20059;-57
2022/09/11 15:20:28;;;;;;;0.90;0.20;;;;;;;21.18;69.00;98583.47;5049362;28;20064;-60
2022/09/11 15:23:15;;;;;;;2.83;0.10;;;;;;;20.91;68.68;98583.78;5064455;28;20151;-58
2022/09/11 15:26:01;;;;;;;0.70;0.20;;;;;;;21.01;68.50;98586.25;5046065;28;20051;-58
2022/09/11 15:28:49;;;;;;;1.75;0.20;;;;;;;20.55;70.06;98589.66;5060630;28;20068;-59
2022/09/11 15:31:37;;;;;;;0.88;0.30;;;;;;;20.45;70.42;98581.88;5066279;28;20047;-59
2022/09/11 15:34:22;;;;;;;0.47;0.10;;;;;;;19.62;73.63;98584.81;5065582;28;20480;-59
2022/09/11 15:37:06;;;;;;;0.30;0.20;;;;;;;19.41;75.24;98591.44;5064658;28;20048;-60
2022/09/11 15:39:53;;;;;;;0.70;0.10;;;;;;;19.22;76.01;98582.84;5062716;28;20075;-59
2022/09/11 15:42:39;;;;;;;0.20;0.10;;;;;;;18.68;77.15;98598.19;5065605;28;20090;-58
2022/09/11 15:45:24;;;;;;;0.22;0.13;;;;;;;18.47;78.18;98583.50;5063691;28;20037;-58
2022/09/11 15:48:09;;;;;;;0.20;0.10;;;;;;;18.69;78.23;98596.34;5052922;28;20033;-59
2022/09/11 15:50:59;;;;;;;2.92;0.30;;;;;;;18.63;76.73;98581.91;5052394;28;20037;-59
2022/09/11 15:53:44;;;;;;;0.68;0.20;;;;;;;18.41;78.19;98597.41;5054309;28;20041;-58
2022/09/11 15:56:28;;;;;;;0.32;0.20;;;;;;;17.95;81.13;98619.69;5030167;28;20056;-57
2022/09/11 15:59:20;;;;;;;0.45;0.10;;;;;;;18.07;81.62;98644.13;5051501;28;20151;-59
2022/09/11 16:02:07;;;;;;;0.77;0.32;;;;;;;18.05;82.70;98648.75;5051294;28;20064;-56
2022/09/11 16:04:52;;;;;;;0.93;0.55;;;;;;;17.49;87.85;98636.59;5037733;28;20060;-60
2022/09/11 16:07:40;;;;;;;1.95;0.40;;;;;;;17.27;89.80;98650.34;5011061;28;20396;-58
2022/09/11 16:10:26;;;;;;;0.40;0.30;;;;;;;16.43;88.15;98660.00;5050973;28;20045;-57
2022/09/11 16:13:17;;;;;;;1.35;0.30;;;;;;;15.76;91.80;98677.53;5051764;28;20049;-53
2022/09/11 16:16:04;;;;;;;2.45;0.32;;;;;;;14.99;95.87;98686.09;5048158;28;20179;-62
2022/09/11 16:18:49;;;;;;;1.38;0.40;;;;;;;15.34;100.00;98678.63;5048144;28;20124;-57
2022/09/11 16:21:34;;;;;;;1.40;0.40;;;;;;;15.00;99.27;98698.31;5051899;28;20091;-58
2022/09/11 16:24:18;;;;;;;0.90;0.50;;;;;;;15.13;100.00;98703.34;5025063;28;20041;-58
2022/09/11 16:27:06;;;;;;;0.82;0.30;;;;;;;14.66;100.00;98680.16;5048518;28;20392;-59
2022/09/11 16:29:51;;;;;;;1.63;0.30;;;;;;;14.67;100.00;98679.19;5050483;28;20033;-57
2022/09/11 16:32:38;;;;;;;1.60;0.40;;;;;;;14.82;100.00;98684.94;5012682;28;20138;-57
2022/09/11 16:35:24;;;;;;;0.80;0.28;;;;;;;15.21;100.00;98691.28;5050987;28;20341;-59
2022/09/11 16:38:10;;;;;;;0.85;0.35;;;;;;;15.35;100.00;98693.50;5027499;28;20052;-56
2022/09/11 16:41:11;;;;;;;4.32;0.50;;;;;;;14.41;100.00;98691.00;5024305;28;20069;-58
2022/09/11 16:43:55;;;;;;;1.98;0.35;;;;;;;14.09;100.00;98688.50;5024709;28;20037;-55
2022/09/11 16:46:41;;;;;;;2.42;0.65;;;;;;;14.00;100.00;98683.03;5045556;28;20417;-58
2022/09/11 16:49:25;;;;;;;2.90;0.65;;;;;;;13.80;100.00;98674.19;5049533;28;20393;-56
2022/09/11 16:52:17;;;;;;;2.05;0.28;;;;;;;13.70;100.00;98675.91;5032968;28;20082;-53
2022/09/11 16:55:10;;;;;;;1.85;0.60;;;;;;;13.70;100.00;98684.66;5035475;28;20392;-59
2022/09/11 16:57:55;;;;;;;1.52;0.38;;;;;;;13.73;100.00;98679.13;5032023;28;20071;-60
2022/09/11 17:00:41;;;;;;;0.95;0.30;;;;;;;13.71;100.00;98680.22;5030829;28;20100;-58
2022/09/11 17:03:26;;;;;;;1.02;0.40;;;;;;;13.69;100.00;98679.53;5031038;28;20041;-59
2022/09/11 17:06:13;;;;;;;1.45;0.65;;;;;;;13.80;100.00;98679.47;5048752;28;20426;-59
2022/09/11 17:09:00;;;;;;;0.85;0.30;;;;;;;13.59;100.00;98688.19;5053087;28;20091;-61
2022/09/11 17:11:46;;;;;;;2.28;0.30;;;;;;;13.60;100.00;98689.00;5036756;28;20036;-53
2022/09/11 17:14:31;;;;;;;0.40;0.20;;;;;;;13.52;100.00;98693.13;5037674;28;20049;-56
2022/09/11 17:17:16;;;;;;;0.50;0.20;;;;;;;13.67;100.00;98698.06;5035863;28;20426;-54
2022/09/11 17:20:01;;;;;;;0.63;0.25;;;;;;;13.73;100.00;98696.72;5047662;28;20041;-57